Demopolis, AL

7:50 AM CDT on May 26, 2015 (GMT -0500)
The Barnes Family | | Change Station
CLOSE
Current Station
Personal Weather Station
Location: Demopolis, AL
Elevation: 121 ft
Nearby Weather Stations

Elev 121 ft 32.52 °N, 87.84 °W | Updated 13 minutes ago

Overcast
Overcast
73.2 °F
Feels Like 70 °F
N
0.0
Wind Variable Wind from SSE
Gusts 5.0 mph

Today
High -- | Low -- °F
--% Chance of Precip.
Yesterday
High -- | Low -- °F
Precip. -- in
5:47 AM 7:50 PM
First Quarter, 58% visible
Pressure 30.14 in
Visibility 3.0 miles
Clouds Scattered Clouds 3500 ft
Mostly Cloudy 5500 ft
Overcast 10000 ft
Heat Index 70 °F
Dew Point 71 °F
Humidity 92%
Rainfall 0.00 in
Snow Depth Not available.
UV 0.0 out of 12
Pollen .80 out of 12
Air Quality Not available.
Flu Activity Sporadic
METAR KNMM 261156Z 26005KT 3SM -RA BR SCT035 BKN055 OVC100 20/19 A3012 RMK AO2 WSHFT 1125 RAB27 CIG 033 SOUTH SLP207 T2 SET P0007 60007 70010 T02000189 10211 20200 53018 $

More Conditions Fewer Conditions

Pressure 30.14 in
Visibility 3.0 miles
Clouds Scattered Clouds 3500 ft
Mostly Cloudy 5500 ft
Overcast 10000 ft
Heat Index 70 °F
Dew Point 71 °F
Humidity 92%
Rainfall 0.00 in
Snow Depth Not available.
UV 0.0 out of 12
Pollen .80 out of 12
Air Quality Not available.
Flu Activity Sporadic
METAR KNMM 261156Z 26005KT 3SM -RA BR SCT035 BKN055 OVC100 20/19 A3012 RMK AO2 WSHFT 1125 RAB27 CIG 033 SOUTH SLP207 T2 SET P0007 60007 70010 T02000189 10211 20200 53018 $

More Conditions Fewer Conditions

10-Day Weather Forecast

Almanac

Astronomy

May. 26, 2015 Rise Set
Actual Time
Civil Twilight
Nautical Twilight
Astronomical Twilight
Moon
Length of Visible Light
Length of Day
Tomorrow will be .
, % of the Moon is Illuminated

Today's Extremes

State Highs State Lows

Community

WunderPhotos

Upload Photos

1,824,336 photos uploaded!

WunderBlogs® & News

Nearby

Air Quality

  Air Quality AQ Index Pollutant
Not available.

Snow Depth

Station Depth Elevation

Earthquake Activity

City Distance Mag. Time & Date
Minimum magnitude displayed is 2.5.

Coastal Water Temperatures

Place Temperature

Stations

Nearby Weather Stations

Station Location Temp. Windchill Dew Point Humidity Wind Precip. Elev Updated Type